Time;durP1;ratioP1;P1;durP2;ratioP2;P2;SDS_P1;SDS_P2;PMS_P1;PMS_P2;Temp;Humidity;BMP_temperature;BMP_pressure;BME280_temperature;BME280_humidity;BME280_pressure;Samples;Min_cycle;Max_cycle;Signal;HPM_P1;HPM_P2
2021/12/08 00:00:13;;;;;;;2.80;1.10;;;;;;;7.53;67.86;99177.28;5065701;28;20106;-62
2021/12/08 00:02:41;;;;;;;4.00;1.38;;;;;;;7.50;67.79;99178.56;5070530;28;20049;-60
2021/12/08 00:05:11;;;;;;;4.05;1.30;;;;;;;7.53;68.00;99163.91;5078386;28;20052;-62
2021/12/08 00:07:39;;;;;;;3.72;1.45;;;;;;;7.52;67.40;99165.78;5078808;28;20083;-60
2021/12/08 00:10:17;;;;;;;1.80;1.30;;;;;;;7.52;67.87;99163.09;5069154;28;20041;-62
2021/12/08 00:13:04;;;;;;;3.33;1.20;;;;;;;7.53;68.16;99146.00;5066613;28;20053;-60
2021/12/08 00:15:33;;;;;;;3.13;1.70;;;;;;;7.52;67.72;99141.72;5071359;28;20045;-60
2021/12/08 00:18:03;;;;;;;2.70;1.40;;;;;;;7.51;68.47;99140.91;5075049;28;20045;-60
2021/12/08 00:20:32;;;;;;;3.10;1.30;;;;;;;7.42;67.98;99131.66;5068711;28;20048;-61
2021/12/08 00:23:01;;;;;;;2.60;1.20;;;;;;;7.55;68.02;99146.56;5072221;28;20075;-60
2021/12/08 00:25:31;;;;;;;5.07;2.25;;;;;;;7.61;67.79;99163.50;5070118;28;20067;-60
2021/12/08 00:28:02;;;;;;;6.25;1.60;;;;;;;7.62;67.85;99157.91;5066371;28;20040;-60
2021/12/08 00:30:30;;;;;;;2.70;1.25;;;;;;;7.61;68.45;99148.25;5071772;28;20068;-60
2021/12/08 00:32:59;;;;;;;1.83;1.05;;;;;;;7.60;68.24;99161.88;5068770;28;20045;-59
2021/12/08 00:35:28;;;;;;;1.17;1.02;;;;;;;7.59;68.41;99160.25;5062617;28;20109;-60
2021/12/08 00:37:57;;;;;;;2.97;1.40;;;;;;;7.49;68.42;99139.53;5067321;28;20075;-61
2021/12/08 00:40:27;;;;;;;2.97;1.40;;;;;;;7.59;68.53;99152.25;5066556;28;20041;-50
2021/12/08 00:42:57;;;;;;;2.00;1.17;;;;;;;7.59;68.79;99152.25;5067706;28;20053;-60
2021/12/08 00:45:25;;;;;;;1.13;0.93;;;;;;;7.57;68.17;99157.81;5077032;28;20060;-61
2021/12/08 00:47:55;;;;;;;2.45;1.20;;;;;;;7.56;68.48;99163.41;5070748;28;20105;-62
2021/12/08 00:50:28;;;;;;;5.13;1.30;;;;;;;7.56;68.35;99163.41;5065826;28;20068;-60
2021/12/08 00:52:57;;;;;;;1.67;1.25;;;;;;;7.57;68.78;99173.06;5065223;28;20113;-60
2021/12/08 00:55:26;;;;;;;2.00;1.38;;;;;;;7.56;68.63;99169.56;5065729;28;20048;-60
2021/12/08 00:57:56;;;;;;;5.57;1.45;;;;;;;7.57;69.29;99171.19;5073206;28;20045;-62
2021/12/08 01:00:28;;;;;;;1.90;0.88;;;;;;;7.56;68.87;99182.13;5067750;28;20072;-60
2021/12/08 01:02:56;;;;;;;2.85;1.15;;;;;;;7.57;68.75;99181.88;5066191;28;20356;-60
2021/12/08 01:05:28;;;;;;;3.35;1.30;;;;;;;7.57;69.04;99181.06;5065942;28;20139;-60
2021/12/08 01:07:57;;;;;;;2.40;1.25;;;;;;;7.57;69.30;99189.91;5064966;28;20064;-60
2021/12/08 01:10:29;;;;;;;2.40;0.93;;;;;;;7.56;69.05;99187.47;5064860;28;20071;-48
2021/12/08 01:13:05;;;;;;;2.33;1.02;;;;;;;7.57;69.15;99194.44;5065332;28;20056;-61
2021/12/08 01:15:34;;;;;;;1.38;0.98;;;;;;;7.57;69.19;99200.59;5069009;28;20045;-61
2021/12/08 01:18:02;;;;;;;1.35;1.00;;;;;;;7.57;69.00;99195.25;5067064;28;20045;-61
2021/12/08 01:20:30;;;;;;;1.95;1.00;;;;;;;7.57;69.36;99192.59;5074186;28;20060;-60
2021/12/08 01:22:58;;;;;;;3.03;1.30;;;;;;;7.59;68.57;99195.00;5066208;28;20119;-60
2021/12/08 01:25:26;;;;;;;2.17;1.15;;;;;;;7.57;69.21;99200.59;5076916;28;20076;-61
2021/12/08 01:27:53;;;;;;;3.92;1.13;;;;;;;7.59;68.95;99203.03;5070107;28;20075;-63
2021/12/08 01:30:23;;;;;;;2.33;1.08;;;;;;;7.58;69.43;99199.53;5068540;28;20056;-60
2021/12/08 01:32:52;;;;;;;2.55;1.00;;;;;;;7.59;69.46;99203.84;5064743;28;20056;-58
2021/12/08 01:35:21;;;;;;;1.23;0.80;;;;;;;7.60;69.32;99212.69;5075336;28;20053;-61
2021/12/08 01:37:48;;;;;;;2.20;1.13;;;;;;;7.61;69.36;99207.09;5064425;28;20056;-61
2021/12/08 01:40:18;;;;;;;1.67;0.93;;;;;;;7.62;69.27;99205.22;5065818;28;20210;-60
2021/12/08 01:42:50;;;;;;;2.63;1.00;;;;;;;7.61;69.00;99211.63;5070077;28;20072;-61
2021/12/08 01:48:10;;;;;;;1.83;0.88;;;;;;;7.60;69.70;99226.03;5067220;28;20051;-61
2021/12/08 01:50:40;;;;;;;3.38;1.38;;;;;;;7.61;69.36;99228.47;5058836;28;20079;-60
2021/12/08 01:53:09;;;;;;;1.63;0.93;;;;;;;7.61;69.04;99233.00;5067692;28;20122;-60
2021/12/08 01:55:38;;;;;;;1.65;0.77;;;;;;;7.62;69.39;99230.09;5067807;28;20053;-60
2021/12/08 01:58:08;;;;;;;1.27;0.88;;;;;;;7.63;68.98;99226.38;5067337;28;20045;-60
2021/12/08 02:00:40;;;;;;;4.25;0.95;;;;;;;7.62;69.75;99231.97;5066173;28;20102;-59
2021/12/08 02:03:09;;;;;;;2.58;1.00;;;;;;;7.64;70.07;99232.53;5067693;28;20109;-61
2021/12/08 02:05:38;;;;;;;5.10;1.90;;;;;;;7.64;69.63;99232.53;5067609;28;20059;-60
2021/12/08 02:08:07;;;;;;;2.90;0.95;;;;;;;7.62;69.85;99234.63;5063640;28;20060;-60
2021/12/08 02:10:36;;;;;;;7.28;1.17;;;;;;;7.61;69.66;99246.38;5071607;28;20490;-61
2021/12/08 02:13:05;;;;;;;1.85;0.93;;;;;;;7.62;69.29;99248.00;5067419;28;20068;-60
2021/12/08 02:15:34;;;;;;;4.60;1.35;;;;;;;7.62;69.87;99240.78;5066814;28;20052;-61
2021/12/08 02:18:02;;;;;;;2.58;1.00;;;;;;;7.62;70.15;99259.50;5063239;28;20108;-61
2021/12/08 02:20:32;;;;;;;2.90;1.10;;;;;;;7.62;69.80;99264.03;5074986;28;20071;-61
2021/12/08 02:23:01;;;;;;;2.28;1.05;;;;;;;7.63;69.65;99265.66;5067014;28;20056;-63
2021/12/08 02:25:29;;;;;;;5.90;1.38;;;;;;;7.62;69.48;99275.53;5067156;28;20060;-61
2021/12/08 02:27:59;;;;;;;3.55;1.15;;;;;;;7.64;70.14;99270.75;5063271;28;20076;-62
2021/12/08 02:30:34;;;;;;;2.05;1.15;;;;;;;7.63;69.54;99279.84;5077461;28;20049;-60
2021/12/08 02:47:08;;;;;;;3.97;1.73;;;;;;;7.66;69.69;99278.53;5062398;28;20053;-61
2021/12/08 02:49:38;;;;;;;2.30;0.95;;;;;;;7.62;69.23;99270.19;5063061;28;20044;-60
2021/12/08 02:52:08;;;;;;;4.78;1.38;;;;;;;7.66;69.35;99271.34;5063600;28;20052;-61
2021/12/08 02:54:41;;;;;;;2.00;0.93;;;;;;;7.64;69.88;99276.13;5062698;28;20048;-61
2021/12/08 02:57:10;;;;;;;2.22;1.17;;;;;;;7.66;69.75;99281.22;5051204;28;20054;-61
2021/12/08 02:59:40;;;;;;;3.35;1.30;;;;;;;7.63;70.12;99287.84;5072411;28;20634;-60
2021/12/08 03:02:09;;;;;;;4.18;1.30;;;;;;;7.66;69.78;99283.91;5067236;28;20067;-60
2021/12/08 03:04:37;;;;;;;4.75;1.60;;;;;;;7.64;69.68;99284.13;5067576;28;20302;-62
2021/12/08 03:07:07;;;;;;;3.03;1.38;;;;;;;7.65;70.04;99283.09;5067036;28;20045;-61
2021/12/08 03:09:35;;;;;;;3.08;1.40;;;;;;;7.65;69.56;99287.63;5075970;28;20424;-60
2021/12/08 03:12:05;;;;;;;2.08;1.17;;;;;;;7.67;70.31;99293.53;5065391;28;20048;-61
2021/12/08 03:14:33;;;;;;;3.20;1.00;;;;;;;7.58;69.90;99282.41;5071991;28;20090;-61
2021/12/08 03:17:06;;;;;;;3.20;1.10;;;;;;;7.69;69.60;99294.91;5068098;28;20049;-61
2021/12/08 03:19:34;;;;;;;7.07;1.48;;;;;;;7.69;69.66;99291.44;5067352;28;20036;-60
2021/12/08 03:22:09;;;;;;;4.38;1.40;;;;;;;7.68;69.79;99287.13;5062984;28;20079;-56
2021/12/08 03:24:40;;;;;;;3.58;1.67;;;;;;;7.68;70.39;99287.13;5066117;28;20130;-61
2021/12/08 03:27:12;;;;;;;3.70;1.40;;;;;;;7.72;69.74;99299.78;5067121;28;20052;-60
2021/12/08 03:29:48;;;;;;;3.88;1.92;;;;;;;7.72;69.84;99302.47;5081571;28;20037;-61
2021/12/08 03:32:18;;;;;;;3.70;1.42;;;;;;;7.70;70.15;99306.44;5067334;28;21279;-59
2021/12/08 03:34:51;;;;;;;2.83;1.15;;;;;;;7.69;69.99;99307.47;5072692;28;20060;-61
2021/12/08 03:37:22;;;;;;;3.17;1.52;;;;;;;7.69;69.78;99304.81;5066377;28;20057;-59
2021/12/08 03:39:51;;;;;;;4.70;1.25;;;;;;;7.69;69.22;99304.81;5069952;28;20497;-61
2021/12/08 03:42:24;;;;;;;6.60;1.38;;;;;;;7.70;69.53;99309.09;5063121;28;20052;-61
2021/12/08 03:44:55;;;;;;;2.85;1.20;;;;;;;7.62;69.89;99298.78;5069118;28;20061;-61
2021/12/08 03:47:27;;;;;;;8.93;1.70;;;;;;;7.70;69.36;99309.91;5067866;28;20041;-61
2021/12/08 03:49:58;;;;;;;6.28;2.03;;;;;;;7.69;69.44;99302.13;5080432;28;20045;-61
2021/12/08 03:52:27;;;;;;;3.67;1.23;;;;;;;7.68;69.86;99301.31;5066854;28;20053;-61
2021/12/08 03:54:55;;;;;;;5.28;1.38;;;;;;;7.58;69.22;99303.81;5069364;28;20079;-61
2021/12/08 03:57:24;;;;;;;4.88;1.63;;;;;;;7.68;69.37;99317.38;5056635;28;20044;-61
2021/12/08 03:59:52;;;;;;;3.08;1.50;;;;;;;7.69;69.44;99316.31;5076895;28;20049;-61
2021/12/08 04:02:20;;;;;;;4.00;1.42;;;;;;;7.67;69.32;99321.09;5072803;28;20053;-61
2021/12/08 04:04:50;;;;;;;5.43;2.00;;;;;;;7.67;69.22;99325.63;5071390;28;20136;-61
2021/12/08 04:07:19;;;;;;;2.78;1.20;;;;;;;7.66;69.60;99330.16;5073866;28;20091;-61
2021/12/08 04:09:49;;;;;;;5.32;1.50;;;;;;;7.67;69.20;99329.09;5065680;28;20045;-61
2021/12/08 04:12:19;;;;;;;1.77;1.00;;;;;;;7.68;69.07;99328.06;5078523;28;20041;-61
2021/12/08 04:14:52;;;;;;;4.55;1.55;;;;;;;7.66;70.03;99330.16;5073939;28;20498;-61
2021/12/08 04:17:22;;;;;;;2.58;1.13;;;;;;;7.66;69.52;99324.00;5068094;28;20044;-60
2021/12/08 04:19:53;;;;;;;4.07;1.17;;;;;;;7.66;69.06;99334.69;5066108;28;20056;-61
2021/12/08 04:22:24;;;;;;;6.28;1.70;;;;;;;7.65;69.24;99341.09;5071438;28;20053;-61
2021/12/08 04:24:54;;;;;;;3.35;1.40;;;;;;;7.63;69.00;99333.31;5075062;28;20044;-61
2021/12/08 04:27:28;;;;;;;5.80;1.58;;;;;;;7.62;69.32;99338.91;5066302;28;20076;-61
2021/12/08 04:29:58;;;;;;;6.82;1.95;;;;;;;7.63;69.14;99329.81;5072755;28;21196;-60
2021/12/08 04:32:29;;;;;;;5.65;1.30;;;;;;;7.63;69.14;99340.53;5068339;28;20114;-61
2021/12/08 04:35:00;;;;;;;5.47;1.50;;;;;;;7.61;69.29;99331.94;5071843;28;20067;-61
2021/12/08 04:37:33;;;;;;;5.57;1.50;;;;;;;7.60;69.09;99341.81;5067877;28;20140;-61
2021/12/08 04:40:16;;;;;;;1.67;1.20;;;;;;;7.61;69.22;99346.09;5064185;28;20041;-61
2021/12/08 04:42:57;;;;;;;5.95;1.67;;;;;;;7.60;68.92;99341.81;5077409;28;20049;-61
2021/12/08 04:45:38;;;;;;;5.95;2.00;;;;;;;7.60;69.55;99339.13;5064697;28;20053;-61
2021/12/08 04:48:21;;;;;;;3.55;1.42;;;;;;;7.62;69.24;99345.06;5065485;28;20134;-61
2021/12/08 04:51:23;;;;;;;4.53;1.55;;;;;;;7.64;68.87;99344.81;5065058;28;20102;-61
2021/12/08 05:02:38;;;;;;;4.30;1.40;;;;;;;7.59;68.73;99358.91;5071774;28;20110;-60
2021/12/08 05:05:19;;;;;;;7.10;1.48;;;;;;;7.57;68.81;99358.31;5075135;28;20124;-61
2021/12/08 05:07:53;;;;;;;4.43;1.45;;;;;;;7.58;68.44;99362.63;5072490;28;20059;-62
2021/12/08 05:10:25;;;;;;;8.48;1.70;;;;;;;7.59;68.96;99360.75;5071249;28;20060;-61
2021/12/08 05:12:53;;;;;;;4.15;1.45;;;;;;;7.59;69.21;99366.91;5064082;28;20056;-61
2021/12/08 05:15:24;;;;;;;5.07;1.55;;;;;;;7.57;68.90;99369.03;5073537;28;20459;-61
2021/12/08 05:17:57;;;;;;;8.35;2.72;;;;;;;7.58;68.14;99364.50;5071667;28;20186;-61
2021/12/08 05:20:36;;;;;;;5.13;1.30;;;;;;;7.47;69.06;99355.47;5072165;28;20136;-61
2021/12/08 05:23:09;;;;;;;9.48;1.75;;;;;;;7.54;68.70;99358.00;5071433;28;20088;-60
2021/12/08 05:25:39;;;;;;;4.72;2.10;;;;;;;7.56;68.37;99367.41;5068198;28;20067;-61
2021/12/08 05:28:16;;;;;;;4.18;1.55;;;;;;;7.48;68.60;99357.09;5068728;28;20076;-61
2021/12/08 05:30:47;;;;;;;5.93;1.60;;;;;;;7.55;68.28;99373.78;5067562;28;20045;-61
2021/12/08 05:33:18;;;;;;;5.63;1.75;;;;;;;7.53;68.65;99383.09;5064658;28;20072;-61
2021/12/08 05:35:46;;;;;;;5.88;2.10;;;;;;;7.51;68.84;99391.34;5066926;28;20074;-61
2021/12/08 05:38:16;;;;;;;5.70;1.40;;;;;;;7.53;68.67;99388.44;5065063;28;20049;-61
2021/12/08 05:40:50;;;;;;;6.25;1.27;;;;;;;7.51;68.77;99391.34;5058543;28;20042;-60
2021/12/08 05:43:19;;;;;;;6.13;1.60;;;;;;;7.50;68.64;99401.25;5059777;28;20106;-60
2021/12/08 05:45:48;;;;;;;2.72;1.10;;;;;;;7.49;68.56;99402.28;5064783;28;20057;-60
2021/12/08 05:48:19;;;;;;;3.30;1.20;;;;;;;7.50;68.82;99413.78;5069671;28;20056;-61
2021/12/08 05:50:50;;;;;;;5.63;1.50;;;;;;;7.50;68.32;99416.47;5070192;28;20056;-61
2021/12/08 05:53:18;;;;;;;6.20;1.50;;;;;;;7.49;68.39;99401.47;5067971;28;20052;-61
2021/12/08 05:55:47;;;;;;;7.75;1.70;;;;;;;7.33;68.50;99372.81;5069484;28;20113;-61
2021/12/08 05:58:16;;;;;;;5.75;1.55;;;;;;;7.47;68.44;99406.25;5068185;28;20045;-61
2021/12/08 06:00:48;;;;;;;4.13;1.40;;;;;;;7.48;68.28;99413.22;5066542;28;20045;-61
2021/12/08 06:03:18;;;;;;;5.85;1.50;;;;;;;7.47;68.31;99412.41;5067364;28;20071;-61
2021/12/08 06:05:48;;;;;;;3.80;1.27;;;;;;;7.48;67.86;99418.56;5075385;28;20044;-61
2021/12/08 06:08:18;;;;;;;6.15;1.63;;;;;;;7.46;68.13;99415.31;5074613;28;20067;-61
2021/12/08 06:10:47;;;;;;;5.72;1.50;;;;;;;7.45;68.07;99406.47;5063818;28;20056;-61
2021/12/08 06:13:17;;;;;;;10.60;2.58;;;;;;;7.46;68.44;99420.66;5070992;28;20447;-61
2021/12/08 06:15:47;;;;;;;6.13;1.50;;;;;;;7.46;68.20;99416.13;5063216;28;20118;-61
2021/12/08 06:18:19;;;;;;;7.40;1.58;;;;;;;7.46;68.08;99426.81;5068150;28;20048;-61
2021/12/08 06:20:49;;;;;;;4.57;1.50;;;;;;;7.45;67.92;99427.88;5065089;28;20182;-61
2021/12/08 06:23:17;;;;;;;7.70;1.50;;;;;;;7.45;68.56;99433.22;5072446;28;20041;-60
2021/12/08 06:25:45;;;;;;;4.97;1.63;;;;;;;7.50;67.89;99432.50;5069507;28;20147;-58
2021/12/08 06:28:13;;;;;;;5.47;1.90;;;;;;;7.47;68.16;99441.81;5062217;28;20045;-61
2021/12/08 06:30:45;;;;;;;6.85;2.38;;;;;;;7.46;67.66;99434.84;5061482;28;20045;-60
2021/12/08 06:33:15;;;;;;;10.23;1.70;;;;;;;7.47;68.11;99433.78;5053373;28;20132;-61
2021/12/08 06:35:46;;;;;;;5.57;2.30;;;;;;;7.48;67.60;99432.75;5060166;28;20359;-64
2021/12/08 06:38:17;;;;;;;6.38;1.73;;;;;;;7.47;68.15;99444.47;5063745;28;20072;-63
2021/12/08 06:40:52;;;;;;;7.53;1.70;;;;;;;7.47;67.94;99439.13;4365147;28;10000816;-66
2021/12/08 06:43:22;;;;;;;7.60;1.90;;;;;;;7.47;67.69;99449.00;5066596;28;20110;-61
2021/12/08 06:45:54;;;;;;;6.90;2.25;;;;;;;7.46;67.81;99437.50;5062472;28;20128;-65
2021/12/08 06:48:27;;;;;;;8.55;1.67;;;;;;;7.47;68.17;99441.00;5070522;28;20056;-66
2021/12/08 06:50:58;;;;;;;5.53;1.80;;;;;;;7.46;67.75;99445.53;5051448;28;20131;-61
2021/12/08 06:53:29;;;;;;;12.55;2.53;;;;;;;7.44;67.40;99444.13;5059399;28;20053;-59
2021/12/08 06:56:01;;;;;;;8.20;2.30;;;;;;;7.42;67.28;99448.91;5059586;28;20136;-63
2021/12/08 06:58:32;;;;;;;8.65;2.15;;;;;;;7.43;68.13;99451.34;5057846;28;20087;-63
2021/12/08 07:01:14;;;;;;;4.63;1.95;;;;;;;7.40;68.01;99451.00;5061455;28;20056;-63
2021/12/08 07:03:50;;;;;;;10.75;1.83;;;;;;;7.42;68.04;99454.25;5054952;28;20067;-62
2021/12/08 07:06:44;;;;;;;5.97;1.95;;;;;;;7.45;67.82;99459.13;5061650;28;20044;-62
2021/12/08 07:09:24;;;;;;;7.55;1.90;;;;;;;7.46;67.77;99476.78;5069517;28;20065;-62
2021/12/08 07:11:55;;;;;;;12.73;3.60;;;;;;;7.44;68.03;99482.38;5050397;28;20102;-63
2021/12/08 07:14:26;;;;;;;15.43;2.20;;;;;;;7.44;67.40;99473.53;5074948;28;20052;-62
2021/12/08 07:16:57;;;;;;;6.75;2.15;;;;;;;7.44;67.11;99487.72;5062772;28;20056;-63
2021/12/08 07:19:34;;;;;;;7.80;2.55;;;;;;;7.49;67.92;99482.47;5063054;28;20508;-62
2021/12/08 07:22:06;;;;;;;7.05;1.98;;;;;;;7.44;68.59;99486.91;5062328;28;20041;-61
2021/12/08 07:24:38;;;;;;;6.90;1.80;;;;;;;7.44;67.50;99495.75;5062454;28;20132;-62
2021/12/08 07:27:08;;;;;;;9.77;2.70;;;;;;;7.43;67.92;99493.31;5063190;28;20045;-61
2021/12/08 07:29:39;;;;;;;6.93;1.73;;;;;;;7.43;67.82;99494.13;5068871;28;20071;-63
2021/12/08 07:32:10;;;;;;;8.15;2.10;;;;;;;7.41;68.26;99495.41;4718215;28;10000710;-59
2021/12/08 07:34:39;;;;;;;11.23;2.03;;;;;;;7.40;67.94;99509.81;5067599;28;20045;-57
2021/12/08 07:37:13;;;;;;;6.78;1.60;;;;;;;7.40;68.30;99512.47;5056264;28;20081;-62
2021/12/08 07:39:51;;;;;;;5.32;1.95;;;;;;;7.36;68.17;99516.66;5056921;28;20049;-62
2021/12/08 07:42:24;;;;;;;7.70;1.88;;;;;;;7.36;67.94;99530.84;5058032;28;20045;-61
2021/12/08 07:44:55;;;;;;;8.35;2.65;;;;;;;7.33;67.99;99531.31;5057128;28;20532;-62
2021/12/08 07:47:28;;;;;;;5.45;1.70;;;;;;;7.34;68.08;99537.47;5057668;28;20061;-62
2021/12/08 07:49:59;;;;;;;5.45;1.50;;;;;;;7.34;67.91;99535.59;5059413;28;20072;-61
2021/12/08 07:52:33;;;;;;;6.20;1.85;;;;;;;7.33;68.12;99547.34;5057355;28;20095;-62
2021/12/08 07:55:08;;;;;;;8.77;1.88;;;;;;;7.33;68.29;99549.19;5053000;28;20052;-60
2021/12/08 07:57:36;;;;;;;5.72;1.80;;;;;;;7.36;67.54;99533.50;5058901;28;20078;-63
2021/12/08 08:00:13;;;;;;;8.35;1.85;;;;;;;7.34;67.82;99530.25;4705921;28;9999943;-60
2021/12/08 08:02:41;;;;;;;9.07;2.15;;;;;;;7.34;67.83;99538.28;5059980;28;20135;-62
2021/12/08 08:05:14;;;;;;;8.07;2.00;;;;;;;7.34;68.06;99545.47;5061746;28;20068;-60
2021/12/08 08:07:43;;;;;;;5.60;2.10;;;;;;;7.34;67.76;99542.81;5061860;28;20094;-62
2021/12/08 08:10:15;;;;;;;5.13;1.48;;;;;;;7.41;68.08;99544.31;5062591;28;20045;-61
2021/12/08 08:12:46;;;;;;;6.00;1.70;;;;;;;7.45;67.72;99542.00;5062657;28;20064;-62
2021/12/08 08:15:20;;;;;;;8.00;1.60;;;;;;;7.53;68.37;99548.84;5071225;28;20049;-62
2021/12/08 08:17:51;;;;;;;3.60;1.50;;;;;;;7.51;67.18;99544.53;5069454;28;20409;-62
2021/12/08 08:20:22;;;;;;;4.03;1.50;;;;;;;7.51;67.59;99536.53;5073322;28;20090;-62
2021/12/08 08:22:51;;;;;;;7.75;1.63;;;;;;;7.66;68.29;99546.75;5072363;28;20162;-62
2021/12/08 08:25:24;;;;;;;6.00;1.52;;;;;;;7.58;67.46;99547.09;5072250;28;20141;-62
2021/12/08 08:27:53;;;;;;;6.32;1.92;;;;;;;7.53;67.64;99549.66;5076941;28;20052;-62
2021/12/08 08:30:23;;;;;;;7.68;3.80;;;;;;;7.48;67.84;99544.19;5068230;28;20101;-62
2021/12/08 08:32:54;;;;;;;7.47;1.65;;;;;;;7.47;67.56;99546.06;5070601;28;20162;-61
2021/12/08 08:35:28;;;;;;;7.13;2.13;;;;;;;7.59;67.58;99548.72;5072377;28;20040;-62
2021/12/08 08:37:58;;;;;;;8.52;2.45;;;;;;;7.52;67.67;99548.03;5064581;28;20049;-62
2021/12/08 08:40:32;;;;;;;3.88;1.75;;;;;;;7.47;67.35;99535.38;5064863;28;20044;-61
2021/12/08 08:43:00;;;;;;;3.97;1.65;;;;;;;7.42;67.79;99519.22;5070786;28;20049;-63
2021/12/08 08:45:32;;;;;;;9.50;2.17;;;;;;;7.47;67.56;99515.84;5064712;28;20075;-62
2021/12/08 08:48:04;;;;;;;4.70;1.50;;;;;;;7.45;67.29;99513.41;5067144;28;20053;-62
2021/12/08 08:50:37;;;;;;;7.28;1.98;;;;;;;7.44;67.56;99508.28;5063643;28;20056;-62
2021/12/08 08:53:06;;;;;;;9.10;1.92;;;;;;;7.48;68.08;99515.59;5065412;28;20044;-65
2021/12/08 08:55:45;;;;;;;;;;;;;;;7.44;67.39;99508.28;4705940;28;10000251;-60
2021/12/08 08:58:13;;;;;;;7.38;1.80;;;;;;;7.48;67.79;99517.47;5057701;28;19948;-62
2021/12/08 09:00:45;;;;;;;5.68;1.75;;;;;;;7.57;66.78;99513.38;5072664;28;20135;-61
2021/12/08 09:03:18;;;;;;;3.90;1.23;;;;;;;7.67;66.90;99518.94;5052352;28;20049;-61
2021/12/08 09:05:52;;;;;;;4.55;1.40;;;;;;;7.81;66.31;99536.38;5062174;28;20120;-61
2021/12/08 09:08:23;;;;;;;4.07;1.55;;;;;;;7.97;65.75;99536.69;5066924;28;20048;-63
2021/12/08 09:10:58;;;;;;;7.38;1.80;;;;;;;8.13;64.86;99534.06;5063102;28;20190;-62
2021/12/08 09:13:30;;;;;;;4.47;1.50;;;;;;;8.25;64.71;99535.91;5062006;28;20068;-60
2021/12/08 09:16:04;;;;;;;4.20;1.10;;;;;;;8.37;64.57;99529.47;5064593;28;20419;-62
2021/12/08 09:18:43;;;;;;;7.20;1.70;;;;;;;8.54;63.66;99534.06;5062036;28;20084;-62
2021/12/08 09:21:18;;;;;;;4.03;1.45;;;;;;;8.70;63.29;99538.59;5071805;28;20051;-62
2021/12/08 09:23:51;;;;;;;3.83;1.75;;;;;;;8.77;62.70;99550.78;5060511;28;20056;-62
2021/12/08 09:26:22;;;;;;;7.70;1.98;;;;;;;8.91;62.47;99550.47;5064212;28;20110;-62
2021/12/08 09:28:53;;;;;;;5.38;1.30;;;;;;;8.99;62.91;99550.88;5060417;28;20566;-62
2021/12/08 09:31:25;;;;;;;7.63;1.67;;;;;;;9.19;62.50;99546.91;5055921;28;20552;-60
2021/12/08 09:33:57;;;;;;;3.47;1.73;;;;;;;9.15;62.15;99551.94;5062072;28;20056;-62
2021/12/08 09:36:29;;;;;;;7.70;1.83;;;;;;;9.26;61.77;99553.72;5064791;28;20060;-62
2021/12/08 09:39:01;;;;;;;5.88;1.55;;;;;;;9.43;61.02;99561.75;5064603;28;20057;-62
2021/12/08 09:41:37;;;;;;;3.65;1.13;;;;;;;9.48;60.80;99550.28;5064149;28;20071;-62
2021/12/08 09:44:08;;;;;;;5.82;1.52;;;;;;;9.52;60.47;99556.78;5056416;28;20061;-62
2021/12/08 09:46:40;;;;;;;11.57;2.40;;;;;;;9.61;60.96;99555.31;5060217;28;20079;-62
2021/12/08 09:49:11;;;;;;;8.48;1.33;;;;;;;9.56;60.61;99553.34;5064549;28;20049;-62
2021/12/08 09:51:40;;;;;;;5.88;1.52;;;;;;;9.43;61.02;99551.03;5064522;28;20049;-62
2021/12/08 09:54:08;;;;;;;7.03;1.73;;;;;;;9.22;61.94;99549.91;5063737;28;20453;-62
2021/12/08 09:56:40;;;;;;;5.78;1.50;;;;;;;9.02;62.81;99544.22;5061049;28;20071;-62
2021/12/08 09:59:10;;;;;;;3.42;1.60;;;;;;;8.87;63.02;99547.47;5063184;28;20056;-62
2021/12/08 10:01:41;;;;;;;6.55;1.58;;;;;;;8.74;63.41;99531.69;5062684;28;20045;-60
2021/12/08 10:04:10;;;;;;;5.85;1.77;;;;;;;8.63;63.54;99541.47;5056606;28;20053;-62
2021/12/08 10:06:40;;;;;;;3.25;1.40;;;;;;;8.57;63.79;99549.63;5063672;28;20045;-61
2021/12/08 10:09:09;;;;;;;9.13;2.00;;;;;;;8.48;64.43;99542.00;5063956;28;20045;-61
2021/12/08 10:11:38;;;;;;;5.97;1.67;;;;;;;8.43;64.88;99544.56;5061965;28;20075;-62
2021/12/08 10:14:07;;;;;;;5.88;1.60;;;;;;;8.38;64.67;99528.41;5063218;28;20079;-62
2021/12/08 10:16:36;;;;;;;4.35;1.40;;;;;;;8.34;64.33;99529.13;5062670;28;20106;-62
2021/12/08 10:19:05;;;;;;;3.88;1.35;;;;;;;8.28;65.11;99533.56;5064065;28;20049;-62
2021/12/08 10:21:36;;;;;;;5.40;1.70;;;;;;;8.23;65.52;99532.66;5063161;28;20151;-62
2021/12/08 10:24:14;;;;;;;4.70;1.33;;;;;;;8.20;66.16;99525.91;5063649;28;20045;-62
2021/12/08 10:26:44;;;;;;;8.98;1.90;;;;;;;8.13;65.44;99525.22;5063788;28;20106;-62
2021/12/08 10:29:13;;;;;;;12.63;1.80;;;;;;;8.11;65.78;99519.31;5063172;28;20064;-63
2021/12/08 10:31:44;;;;;;;6.03;1.55;;;;;;;8.04;65.79;99515.94;5063255;28;20053;-61
2021/12/08 10:34:22;;;;;;;3.72;1.13;;;;;;;8.11;65.80;99512.09;5059541;28;20080;-64
2021/12/08 10:36:54;;;;;;;5.50;1.60;;;;;;;8.13;65.90;99512.66;5073962;28;20045;-63
2021/12/08 10:39:29;;;;;;;9.52;2.30;;;;;;;8.10;66.38;99510.47;5073520;28;20053;-63
2021/12/08 10:42:13;;;;;;;10.13;1.98;;;;;;;8.07;65.91;99507.44;5063713;28;20056;-62
2021/12/08 10:44:52;;;;;;;4.50;1.67;;;;;;;8.07;66.59;99513.63;5066689;28;20049;-66
2021/12/08 10:47:29;;;;;;;3.47;1.60;;;;;;;7.96;66.53;99495.75;5069267;28;20125;-64
2021/12/08 10:55:38;;;;;;;6.25;1.73;;;;;;;8.04;66.47;99500.72;5061395;28;20055;-66
2021/12/08 10:58:08;;;;;;;6.65;1.60;;;;;;;8.08;66.95;99514.44;5061323;28;20075;-64
2021/12/08 11:00:41;;;;;;;7.07;2.00;;;;;;;8.11;67.25;99519.31;5065070;28;20049;-64
2021/12/08 11:03:11;;;;;;;9.40;1.70;;;;;;;8.18;66.80;99519.16;5069180;28;20045;-64
2021/12/08 11:05:51;;;;;;;6.63;1.52;;;;;;;8.31;67.46;99525.03;5064582;28;20049;-61
2021/12/08 11:08:29;;;;;;;14.45;3.33;;;;;;;8.56;66.25;99532.75;5059519;28;20052;-68
2021/12/08 11:11:02;;;;;;;4.95;2.03;;;;;;;8.74;66.64;99532.50;5071900;28;20044;-68
2021/12/08 11:13:33;;;;;;;11.45;1.55;;;;;;;8.92;65.64;99536.81;5073230;28;20089;-68
2021/12/08 11:16:10;;;;;;;3.15;1.48;;;;;;;9.08;65.45;99535.22;5072893;28;20048;-63
2021/12/08 11:18:40;;;;;;;6.35;1.50;;;;;;;9.21;65.57;99534.88;5069964;28;20110;-65
2021/12/08 11:21:15;;;;;;;17.33;2.15;;;;;;;9.48;65.07;99556.47;5066712;28;20049;-67
2021/12/08 11:24:06;;;;;;;31.88;3.05;;;;;;;9.41;65.27;99548.59;5068301;28;20108;-66
2021/12/08 11:26:37;;;;;;;13.00;2.08;;;;;;;9.34;64.94;99549.81;5074452;28;20049;-65
2021/12/08 11:29:09;;;;;;;21.27;2.80;;;;;;;9.26;65.21;99548.34;5069177;28;20044;-67
2021/12/08 11:31:40;;;;;;;13.55;2.47;;;;;;;9.18;66.06;99564.03;5065694;28;20049;-65
2021/12/08 11:34:15;;;;;;;18.73;2.78;;;;;;;9.09;66.84;99559.09;5064255;28;20052;-67
2021/12/08 11:36:45;;;;;;;18.98;3.85;;;;;;;9.14;67.87;99567.22;5075898;28;20044;-61
2021/12/08 11:39:15;;;;;;;15.02;2.78;;;;;;;9.17;67.66;99573.13;5071249;28;20045;-67
2021/12/08 11:41:45;;;;;;;17.27;2.65;;;;;;;9.12;67.28;99584.59;5066658;28;20063;-67
2021/12/08 11:44:17;;;;;;;12.07;2.22;;;;;;;9.07;67.41;99579.97;5063857;28;20051;-66
2021/12/08 11:47:01;;;;;;;18.20;1.90;;;;;;;9.04;67.63;99574.28;5058894;28;20095;-64
2021/12/08 11:49:29;;;;;;;10.10;2.00;;;;;;;8.91;67.54;99569.22;5057822;28;20048;-67
2021/12/08 11:52:05;;;;;;;12.10;1.48;;;;;;;8.90;67.43;99595.19;5066332;28;20049;-67
2021/12/08 11:54:40;;;;;;;11.30;1.70;;;;;;;8.87;67.68;99590.31;5054538;28;20049;-67
2021/12/08 11:57:12;;;;;;;10.40;2.00;;;;;;;8.74;67.17;99582.59;5061749;28;20049;-67
2021/12/08 11:59:55;;;;;;;10.77;3.03;;;;;;;8.70;67.23;99582.25;5062198;28;20049;-67
2021/12/08 12:02:25;;;;;;;9.70;1.85;;;;;;;8.76;66.71;99604.59;5065872;28;20045;-67
2021/12/08 12:04:54;;;;;;;8.10;1.73;;;;;;;8.77;67.75;99592.81;5061603;28;20124;-67
2021/12/08 12:07:23;;;;;;;7.32;1.77;;;;;;;9.04;67.56;99601.06;5061351;28;20046;-67
2021/12/08 12:09:51;;;;;;;11.18;1.70;;;;;;;9.10;66.65;99603.59;5061268;28;20045;-68
2021/12/08 12:12:20;;;;;;;4.32;1.40;;;;;;;9.02;67.20;99613.91;5069016;28;20080;-67
2021/12/08 12:14:48;;;;;;;9.98;1.70;;;;;;;9.02;67.24;99627.28;5070023;28;20044;-67
2021/12/08 12:17:18;;;;;;;4.28;1.60;;;;;;;9.08;68.08;99635.19;5065487;28;20049;-67
2021/12/08 12:19:51;;;;;;;4.43;1.25;;;;;;;8.99;66.66;99638.50;5063873;28;20102;-67
2021/12/08 12:22:45;;;;;;;6.38;1.25;;;;;;;8.99;67.25;99646.53;5077217;28;20049;-67
2021/12/08 12:25:30;;;;;;;15.52;3.03;;;;;;;9.14;65.92;99644.94;5066238;28;20056;-67
2021/12/08 12:28:23;;;;;;;13.15;1.33;;;;;;;9.40;66.33;99653.41;5071939;28;20053;-68
2021/12/08 12:31:07;;;;;;;12.45;1.77;;;;;;;9.59;65.90;99656.66;5021037;28;20075;-68
2021/12/08 12:33:43;;;;;;;13.45;1.88;;;;;;;9.66;65.39;99660.00;5071944;28;20045;-65